KILG

New Castle Airport

Wilmington, Delaware, USA
METAR KILG 191051Z 32006KT 10SM CLR 19/19 A2987 RMK AO2 SLPNO T01940189 $
Observed Flight Rules
Sep-19 @ 10:51 UTC (13 minutes ago) Visual Flight Rules
Wind Visibility Clouds
320° at 6 knots 10 miles
  • Clear skies
Temperatures Readings
Current 19°C / 66°F
Dewpoint 19°C / 66°F
Humidity 100%
Altimeter 29.87" Hg
Pressure 1012 hPa
Elevation 28
METAR KILG 191051Z 32006KT 10SM CLR 19/19 A2987 RMK AO2 SLPNO T01940189 $
Observed Flight Rules
Sep-19 @ 10:51 UTC
(13 minutes ago)
VFR
Wind Visibility
320° at 6 knots 10 miles
Clouds
  • Clear skies
Temperature Dewpoint
19°C / 66°F 19°C / 66°F
Humidity Altimeter Pressure
100% 29.87" Hg 1012 hPa